Have a Safe July 4th! 

Flight Track Log - Related Links

Times and Time Zones

All times are in EDT time to prevent confusion due to time zone crossing. See the UAL538 flight status page for this flight to view local times or setup timezone preferences in your user account.

Time Position Orientation Groundspeed Altitude Reporting Facility
EDT Latitude Longitude Course Direction KTS MPH feet Rate Location/Type
Wed 11:01:08 PM 39.9167 -104.6833 66° East 165 190 6,800  Level Denver TRACON
Wed 11:02:08 PM 39.9500 -104.6167 57° Northeast 213 245 8,200 1,700 Climbing Denver TRACON
Wed 11:03:08 PM 39.9500 -104.5333 90° East 259 298 10,200 1,550 Climbing Denver TRACON
Wed 11:04:00 PM 39.9575 -104.0715 78° East  Level FlightAware Approximate
Wed 11:04:08 PM 39.9667 -104.4167 79° East 322 371 11,300  Level Denver TRACON
Wed 11:05:00 PM 39.9849 -103.9225 79° East  Level FlightAware Approximate
Wed 11:05:08 PM 39.9833 -104.2833 81° East 367 422 12,100  Level Denver TRACON
Wed 11:05:23 PM 39.9778 -104.2531 103° East 362 417 12,500 1,895 Climbing Denver Center
Wed 11:06:00 PM 40.0140 -103.7748 66° East  Level FlightAware Approximate
Wed 11:06:24 PM 39.9897 -104.1167 83° East 379 436 14,500  Level Denver Center
Wed 11:07:26 PM 40.0028 -103.9744 83° East 391 450 16,600 1,422 Climbing Denver Center
Wed 11:08:39 PM 40.0156 -103.8303 83° East 401 461 17,700 1,333 Climbing Denver Center
Wed 11:09:41 PM 40.0417 -103.6461 79° East 405 466 19,600 1,854 Climbing Denver Center
Wed 11:10:42 PM 40.0661 -103.4922 78° East 428 493 21,500 1,721 Climbing Denver Center
Wed 11:11:43 PM 40.0914 -103.3364 78° East 435 501 23,100 1,525 Climbing Denver Center
Wed 11:12:44 PM 40.1164 -103.1797 78° East 436 502 24,600 1,200 Climbing Denver Center
Wed 11:13:58 PM 40.1469 -102.9903 78° East 452 520 25,800 978 Climbing Denver Center
Wed 11:14:59 PM 40.1733 -102.8225 78° East 465 535 26,800 1,131 Climbing Denver Center
Wed 11:16:00 PM 40.2008 -102.6436 79° East 473 544 28,100 1,171 Climbing Denver Center
Wed 11:17:02 PM 40.2303 -102.4533 78° East 478 550 29,200 844 Climbing Denver Center
Wed 11:18:15 PM 40.2556 -102.2842 79° East 494 568 30,000 851 Climbing Denver Center
Wed 11:19:16 PM 40.2892 -102.0572 79° East 499 574 31,100 976 Climbing Denver Center
Wed 11:20:18 PM 40.3167 -101.8850 78° East 505 581 32,000 780 Climbing Denver Center
Wed 11:21:19 PM 40.3419 -101.7094 79° East 512 589 32,700 448 Climbing Denver Center
Wed 11:22:32 PM 40.3711 -101.5036 79° East 515 593 33,000 134 Climbing Denver Center
Wed 11:23:33 PM 40.4017 -101.3006 79° East 511 588 33,000  Level Denver Center
Wed 11:24:34 PM 40.4303 -101.0942 80° East 516 594 33,000  Level Denver Center
Wed 11:25:36 PM 40.4614 -100.9200 77° East 515 593 33,000  Level Denver Center
Wed 11:26:37 PM 40.5250 -100.7256 67° East 524 603 33,000  Level Denver Center
Wed 11:27:38 PM 40.5850 -100.5633 64° Northeast 523 602 33,000  Level Denver Center
Wed 11:28:39 PM 40.6531 -100.3742 65° Northeast 518 596 33,000  Level Denver Center
Wed 11:29:40 PM 40.7019 -100.2367 65° Northeast 522 601 33,000  Level Denver Center
Wed 11:30:42 PM 40.7697 -100.0458 65° Northeast 519 597 33,000  Level Denver Center
Wed 11:31:43 PM 40.8378 -99.8542 65° Northeast 518 596 33,000  Level Denver Center
Wed 11:32:44 PM 40.8986 -99.6822 65° Northeast 515 593 33,000  Level Denver Center
Wed 11:33:45 PM 40.9581 -99.5117 65° Northeast 512 589 33,000  Level Denver Center
Wed 11:34:46 PM 41.0175 -99.3419 65° Northeast 508 585 33,000  Level Denver Center
Wed 11:35:47 PM 41.0756 -99.1739 65° Northeast 503 579 33,000  Level Denver Center
Wed 11:36:16 PM 41.0997 -99.1033 66° East 503 579 33,000  Level Minneapolis Center
Wed 11:36:48 PM 41.1381 -98.9894 66° East 504 580 33,000  Level Denver Center
Wed 11:37:49 PM 41.1931 -98.8272 66° East 505 581 33,000  Level Denver Center
Wed 11:38:18 PM 41.2161 -98.7617 65° Northeast 508 585 33,000  Level Minneapolis Center
Wed 11:39:19 PM 41.2744 -98.5894 66° East 511 588 33,000  Level Minneapolis Center
Wed 11:40:20 PM 41.3339 -98.4097 66° East 501 577 33,000  Level Minneapolis Center
Wed 11:41:21 PM 41.3903 -98.2422 66° East 496 571 33,000  Level Minneapolis Center
Wed 11:42:22 PM 41.4428 -98.0850 66° East 498 573 33,000  Level Minneapolis Center
Wed 11:43:23 PM 41.4989 -97.9153 66° East 501 577 33,000  Level Minneapolis Center
Wed 11:44:24 PM 41.5667 -97.7103 66° East 502 578 33,000  Level Minneapolis Center
Wed 11:45:25 PM 41.6219 -97.5378 67° East 504 580 33,000  Level Minneapolis Center
Wed 11:46:26 PM 41.6778 -97.3664 66° East 503 579 33,000  Level Minneapolis Center
Wed 11:47:26 PM 41.7328 -97.1961 67° East 500 575 33,000  Level Minneapolis Center
Wed 11:48:27 PM 41.7872 -97.0247 67° East 499 574 33,000  Level Minneapolis Center
Wed 11:49:28 PM 41.8303 -96.8886 67° East 497 572 33,000  Level Minneapolis Center
Wed 11:50:29 PM 41.8581 -96.6764 80° East 484 557 33,000 49 Level Minneapolis Center
Wed 11:51:30 PM 41.8422 -96.5036 97° East 467 537 33,100  Climbing Minneapolis Center
Wed 11:52:31 PM 41.8258 -96.3311 97° East 464 534 33,000 -50 Descending Minneapolis Center
Wed 11:53:31 PM 41.8089 -96.1631 98° East 456 525 33,000  Level Minneapolis Center
Wed 11:54:32 PM 41.7925 -95.9925 97° East 457 526 33,000 -1,082 Level Minneapolis Center
Wed 11:55:33 PM 41.7753 -95.8231 98° East 456 525 30,800 -2,262 Descending Minneapolis Center
Wed 11:56:34 PM 41.7578 -95.6506 98° East 462 532 28,400 -2,115 Descending Minneapolis Center
Wed 11:57:35 PM 41.7397 -95.4811 98° East 460 529 26,500 -1,759 Descending Minneapolis Center
Wed 11:58:47 PM 41.7225 -95.3181 98° East 449 517 24,500 -1,940 Descending Minneapolis Center
Wed 11:59:48 PM 41.7019 -95.1289 98° East 433 498 22,200 -2,066 Descending Minneapolis Center
Thu 12:00:49 AM 41.6858 -94.9744 98° East 423 487 20,300 -1,981 Descending Minneapolis Center
Thu 12:01:31 AM 41.6756 -94.8269 95° East 432 497 18,800 -1,574 Descending Minneapolis Center
Thu 12:01:50 AM 41.6681 -94.8158 132° Southeast 427 491 18,700 -1,286 Descending Minneapolis Center
Thu 12:02:13 AM 41.6650 -94.7247 93° East 411 473 17,900 -1,100 Descending Minneapolis Center
Thu 12:02:50 AM 41.6483 -94.6475 106° East 392 451 17,600 -984 Descending Minneapolis Center
Thu 12:03:14 AM 41.6467 -94.5925 92° East 351 404 16,900 -2,852 Descending Minneapolis Center
Thu 12:03:51 AM 41.6158 -94.5322 124° Southeast 334 384 14,700 -3,300 Descending Minneapolis Center
Thu 12:04:14 AM 41.6103 -94.4783 98° East 336 387 13,600 -2,300 Descending Minneapolis Center
Thu 12:04:51 AM 41.5808 -94.4189 123° Southeast 331 381 12,400 -1,574 Descending Minneapolis Center
Thu 12:05:15 AM 41.5742 -94.3728 101° East 318 366 12,000 -1,672 Descending Minneapolis Center
Thu 12:05:52 AM 41.5497 -94.3208 122° Southeast 289 333 10,700 -1,869 Descending Minneapolis Center
Thu 12:06:16 AM 41.5444 -94.2781 99° East 278 320 10,100 -1,770 Descending Minneapolis Center
Thu 12:06:53 AM 41.5200 -94.2303 124° Southeast 270 311 8,900 -2,000 Descending Minneapolis Center
Thu 12:07:16 AM 41.5153 -94.1889 99° East 269 310 8,100 -1,700 Descending Minneapolis Center
Thu 12:07:53 AM 41.4961 -94.1558 128° Southeast 260 299 7,200 -2,459 Descending Minneapolis Center
Thu 12:08:17 AM 41.4797 -94.1028 112° Southeast 251 289 5,600 -3,344 Descending Minneapolis Center
Thu 12:08:54 AM 41.4361 -94.0714 152° Southeast 271 312 3,800 -2,300 Descending Minneapolis Center
Thu 12:09:17 AM 41.4161 -94.0389 129° Southeast 289 333 3,300 -700 Descending Minneapolis Center
Thu 12:09:54 AM 41.3928 -93.9992 128° Southeast 251 289 3,100 -295 Descending Minneapolis Center
Thu 12:10:18 AM 41.4042 -93.9653 66° East 207 238 3,000  Descending Minneapolis Center
Thu 12:10:55 AM 41.4025 -93.9333 94° East 186 214 3,100  Climbing Minneapolis Center
Thu 12:11:19 AM 41.4133 -93.9006 66° East 181 208 3,000  Descending Minneapolis Center
Thu 12:11:56 AM 41.4136 -93.8753 89° East 159 183 3,100 100 Climbing Minneapolis Center
Thu 12:12:19 AM 41.4275 -93.8519 52° Northeast 143 165 3,100  Level Minneapolis Center
Thu 12:12:56 AM 41.4300 -93.8450 64° Northeast 131 151 3,100  Level Minneapolis Center
Thu 12:13:20 AM 41.4486 -93.8142 51° Northeast 127 146 3,100  Level Minneapolis Center
Thu 12:13:57 AM 41.4561 -93.7992 56° Northeast 128 147 3,100  Level Minneapolis Center
Thu 12:14:21 AM 41.4697 -93.7789 48° Northeast 124 143 3,100 -400 Level Minneapolis Center
Thu 12:14:57 AM 41.4742 -93.7656 66° East 115 132 2,700 -600 Descending Minneapolis Center
Thu 12:15:21 AM 41.4869 -93.7467 48° Northeast 110 127 2,500 -590 Descending Minneapolis Center
Thu 12:15:58 AM 41.4939 -93.7300 61° Northeast 118 136 2,100 -689 Descending Minneapolis Center
Thu 12:16:22 AM 41.5081 -93.7086 49° Northeast 121 139 1,800 -700 Descending Minneapolis Center
Thu 12:16:58 AM 41.5150 -93.6922 60° Northeast 126 145 1,400 -667 Descending Minneapolis Center

Login

Don't have an account? Register now (free) for customized features, flight alerts, and more!